createdAt,value
2018-04-08T00:00:20.259Z,12.25
2018-04-08T00:02:48.552Z,11.85
2018-04-08T00:05:16.745Z,11.82
2018-04-08T00:07:44.937Z,12.90
2018-04-08T00:10:13.145Z,11.02
2018-04-08T00:12:41.539Z,12.15
2018-04-08T00:15:09.739Z,12.25
2018-04-08T00:17:37.930Z,12.20
2018-04-08T00:20:06.333Z,11.50
2018-04-08T00:22:34.724Z,11.27
2018-04-08T00:25:02.917Z,11.05
2018-04-08T00:27:31.215Z,11.73
2018-04-08T00:29:59.453Z,11.50
2018-04-08T00:32:27.589Z,11.85
2018-04-08T00:34:55.796Z,12.25
2018-04-08T00:37:23.996Z,9.98
2018-04-08T00:39:52.189Z,10.35
2018-04-08T00:42:20.381Z,12.05
2018-04-08T00:44:48.569Z,13.40
2018-04-08T00:47:16.866Z,11.32
2018-04-08T00:49:45.064Z,11.68
2018-04-08T00:52:13.362Z,12.50
2018-04-08T00:54:41.558Z,12.75
2018-04-08T00:57:09.756Z,12.98
2018-04-08T00:59:38.053Z,11.65
2018-04-08T01:02:06.357Z,12.82
2018-04-08T01:04:34.639Z,11.88
2018-04-08T01:07:02.998Z,12.68
2018-04-08T01:09:31.331Z,11.55
2018-04-08T01:11:59.488Z,12.60
2018-04-08T01:14:27.685Z,11.00
2018-04-08T01:16:55.817Z,11.85
2018-04-08T01:19:24.002Z,11.88
2018-04-08T01:21:51.999Z,11.98
2018-04-08T01:24:20.311Z,11.48
2018-04-08T01:26:48.599Z,12.35
2018-04-08T01:29:16.994Z,12.45
2018-04-08T01:31:45.193Z,12.27
2018-04-08T01:34:13.383Z,13.57
2018-04-08T01:36:41.579Z,11.73
2018-04-08T01:39:09.877Z,11.32
2018-04-08T01:41:38.175Z,11.40
2018-04-08T01:44:08.213Z,12.18
2018-04-08T01:46:36.404Z,12.70
2018-04-08T01:49:04.703Z,12.82
2018-04-08T01:51:33.024Z,13.40
2018-04-08T01:54:01.301Z,11.93
2018-04-08T01:56:29.594Z,12.98
2018-04-08T01:58:57.776Z,12.05
2018-04-08T02:01:25.986Z,12.45
2018-04-08T02:03:54.073Z,11.88
2018-04-08T02:06:22.269Z,12.13
2018-04-08T02:08:50.456Z,12.73
2018-04-08T02:11:18.658Z,12.73
2018-04-08T02:13:46.845Z,12.25
2018-04-08T02:16:14.940Z,11.80
2018-04-08T02:18:43.028Z,12.35
2018-04-08T02:21:11.226Z,12.00
2018-04-08T02:23:39.724Z,11.30
2018-04-08T02:26:08.017Z,10.95
2018-04-08T02:28:36.320Z,11.43
2018-04-08T02:31:04.619Z,11.63
2018-04-08T02:33:32.780Z,12.45
2018-04-08T02:36:01.101Z,12.55
2018-04-08T02:38:29.392Z,11.70
2018-04-08T02:40:57.597Z,12.05
2018-04-08T02:43:25.797Z,12.65
2018-04-08T02:45:53.897Z,10.18
2018-04-08T02:48:22.083Z,11.80
2018-04-08T02:50:50.266Z,11.93
2018-04-08T02:53:18.459Z,12.15
2018-04-08T02:55:46.768Z,12.93
2018-04-08T02:58:15.058Z,12.68
2018-04-08T03:00:43.355Z,12.10
2018-04-08T03:03:11.500Z,11.80
2018-04-08T03:05:39.848Z,10.98
2018-04-08T03:08:08.257Z,11.70
2018-04-08T03:10:36.686Z,12.20
2018-04-08T03:13:05.151Z,9.88
2018-04-08T03:15:33.452Z,12.55
2018-04-08T03:18:01.872Z,11.45
2018-04-08T03:20:30.143Z,10.98
2018-04-08T03:22:58.238Z,12.73
2018-04-08T03:25:26.739Z,11.45
2018-04-08T03:27:54.927Z,11.45
2018-04-08T03:30:23.233Z,12.05
2018-04-08T03:32:51.423Z,11.98
2018-04-08T03:35:19.746Z,11.38
2018-04-08T03:37:47.928Z,11.73
2018-04-08T03:40:16.198Z,13.10
2018-04-08T03:42:44.290Z,12.60
2018-04-08T03:45:12.600Z,11.65
2018-04-08T03:47:40.894Z,10.32
2018-04-08T03:50:09.184Z,12.15
2018-04-08T03:52:38.301Z,12.80
2018-04-08T03:55:06.396Z,12.23
2018-04-08T03:57:34.596Z,10.75
2018-04-08T04:00:02.800Z,11.57
2018-04-08T04:02:30.978Z,12.60
2018-04-08T04:04:59.067Z,12.23
2018-04-08T04:07:27.254Z,11.52
2018-04-08T04:09:55.464Z,16.02
2018-04-08T04:12:23.680Z,15.30
2018-04-08T04:14:51.745Z,12.68
2018-04-08T04:17:20.043Z,12.43
2018-04-08T04:19:48.167Z,13.07
2018-04-08T04:22:16.461Z,12.00
2018-04-08T04:24:44.937Z,12.07
2018-04-08T04:27:13.233Z,11.30
2018-04-08T04:29:41.526Z,13.10
2018-04-08T04:32:09.932Z,12.95
2018-04-08T04:34:38.315Z,12.85
2018-04-08T04:37:06.666Z,13.35
2018-04-08T04:39:34.857Z,12.20
2018-04-08T04:42:03.929Z,12.68
2018-04-08T04:44:31.885Z,11.88
2018-04-08T04:47:00.313Z,12.13
2018-04-08T04:49:28.409Z,12.07
2018-04-08T04:51:56.574Z,12.63
2018-04-08T04:54:25.002Z,12.55
2018-04-08T04:56:53.732Z,10.98
2018-04-08T04:59:21.908Z,12.32
2018-04-08T05:01:50.106Z,12.90
2018-04-08T05:04:19.013Z,11.40
2018-04-08T05:06:47.203Z,12.27
2018-04-08T05:09:15.595Z,11.07
2018-04-08T05:11:44.195Z,12.63
2018-04-08T05:14:12.308Z,12.65
2018-04-08T05:16:40.680Z,12.35
2018-04-08T05:19:08.919Z,12.50
2018-04-08T05:21:37.299Z,13.40
2018-04-08T05:24:05.591Z,13.27
2018-04-08T05:26:33.884Z,12.13
2018-04-08T05:29:01.916Z,12.45
2018-04-08T05:31:30.275Z,12.95
2018-04-08T05:33:58.573Z,11.52
2018-04-08T05:36:26.862Z,12.55
2018-04-08T05:38:55.063Z,13.80
2018-04-08T05:41:23.349Z,14.02
2018-04-08T05:43:51.457Z,12.37
2018-04-08T05:46:19.645Z,13.18
2018-04-08T05:48:47.833Z,13.15
2018-04-08T05:51:16.220Z,13.07
2018-04-08T05:53:44.402Z,14.18
2018-04-08T05:56:12.586Z,13.62
2018-04-08T05:58:40.924Z,12.73
2018-04-08T06:01:09.205Z,14.10
2018-04-08T06:03:37.512Z,14.35
2018-04-08T06:06:05.695Z,15.63
2018-04-08T06:08:33.905Z,15.20
2018-04-08T06:11:01.989Z,16.95
2018-04-08T06:13:30.094Z,13.85
2018-04-08T06:15:58.275Z,14.00
2018-04-08T06:18:26.365Z,12.63
2018-04-08T06:20:54.470Z,14.52
2018-04-08T06:23:22.664Z,13.95
2018-04-08T06:25:50.740Z,14.13
2018-04-08T06:28:19.041Z,14.18
2018-04-08T06:30:47.344Z,13.02
2018-04-08T06:33:15.639Z,13.05
2018-04-08T06:35:43.937Z,14.68
2018-04-08T06:38:12.071Z,14.23
2018-04-08T06:40:40.228Z,14.07
2018-04-08T06:43:08.429Z,14.32
2018-04-08T06:45:36.612Z,13.88
2018-04-08T06:48:04.816Z,15.07
2018-04-08T06:50:32.938Z,14.95
2018-04-08T06:53:01.204Z,14.25
2018-04-08T06:55:29.296Z,14.57
2018-04-08T06:57:57.581Z,13.35
2018-04-08T07:00:25.775Z,14.05
2018-04-08T07:02:53.965Z,14.05
2018-04-08T07:05:22.178Z,15.25
2018-04-08T07:07:50.459Z,13.85
2018-04-08T07:10:18.758Z,13.60
2018-04-08T07:12:47.059Z,14.25
2018-04-08T07:15:15.346Z,14.05
2018-04-08T07:17:43.646Z,15.97
2018-04-08T07:20:11.947Z,14.63
2018-04-08T07:22:40.336Z,14.67
2018-04-08T07:25:08.636Z,14.93
2018-04-08T07:27:36.840Z,16.10
2018-04-08T07:30:05.025Z,14.10
2018-04-08T07:32:33.119Z,14.77
2018-04-08T07:35:01.219Z,15.20
2018-04-08T07:37:29.422Z,13.73
2018-04-08T07:39:57.505Z,14.00
2018-04-08T07:42:25.701Z,13.40
2018-04-08T07:44:53.780Z,14.00
2018-04-08T07:47:22.082Z,14.07
2018-04-08T07:49:50.375Z,13.47
2018-04-08T07:52:18.580Z,13.43
2018-04-08T07:54:46.673Z,12.97
2018-04-08T07:57:14.853Z,13.17
2018-04-08T07:59:43.067Z,13.50
2018-04-08T08:02:11.250Z,13.77
2018-04-08T08:04:40.186Z,12.70
2018-04-08T08:07:08.458Z,13.90
2018-04-08T08:09:36.660Z,12.60
2018-04-08T08:12:05.048Z,12.80
2018-04-08T08:14:33.138Z,13.10
2018-04-08T08:17:01.448Z,12.10
2018-04-08T08:19:29.537Z,11.73
2018-04-08T08:21:57.937Z,12.40
2018-04-08T08:24:26.021Z,11.83
2018-04-08T08:26:54.250Z,12.00
2018-04-08T08:29:23.121Z,11.47
2018-04-08T08:31:51.368Z,11.07
2018-04-08T08:34:19.722Z,10.80
2018-04-08T08:36:47.840Z,10.63
2018-04-08T08:39:16.115Z,11.17
2018-04-08T08:41:44.362Z,10.37
2018-04-08T08:44:12.818Z,10.63
2018-04-08T08:46:42.031Z,11.20
2018-04-08T08:49:10.222Z,10.00
2018-04-08T08:51:38.307Z,10.30
2018-04-08T08:54:06.500Z,10.07
2018-04-08T08:56:34.592Z,8.83
2018-04-08T08:59:02.794Z,10.17
2018-04-08T09:01:30.888Z,9.93
2018-04-08T09:03:59.071Z,9.43
2018-04-08T09:06:27.178Z,10.20
2018-04-08T09:08:55.368Z,10.43
2018-04-08T09:11:23.451Z,11.47
2018-04-08T09:13:51.748Z,11.83
2018-04-08T09:16:20.045Z,12.33
2018-04-08T09:18:48.344Z,12.53
2018-04-08T09:21:16.545Z,12.27
2018-04-08T09:23:44.870Z,12.93
2018-04-08T09:26:13.882Z,12.17
2018-04-08T09:28:42.044Z,12.67
2018-04-08T09:31:10.068Z,14.40
2018-04-08T09:33:38.336Z,12.63
2018-04-08T09:36:06.630Z,11.83
2018-04-08T09:38:34.821Z,12.87
2018-04-08T09:41:02.922Z,12.40
2018-04-08T09:43:31.101Z,12.63
2018-04-08T09:45:59.206Z,12.53
2018-04-08T09:48:27.401Z,12.90
2018-04-08T09:50:55.479Z,12.70
2018-04-08T09:53:23.782Z,11.97
2018-04-08T09:55:52.073Z,11.27
2018-04-08T09:58:20.372Z,10.53
2018-04-08T10:00:48.580Z,10.70
2018-04-08T10:03:16.875Z,10.10
2018-04-08T10:05:44.893Z,12.53
2018-04-08T10:08:13.763Z,10.57
2018-04-08T10:10:42.053Z,11.23
2018-04-08T10:13:10.261Z,11.10
2018-04-08T10:15:38.337Z,10.73
2018-04-08T10:18:10.706Z,10.57
2018-04-08T10:20:38.825Z,9.37
2018-04-08T10:23:07.135Z,9.83
2018-04-08T10:25:35.223Z,10.07
2018-04-08T10:28:03.415Z,11.00
2018-04-08T10:30:31.503Z,10.77
2018-04-08T10:32:59.594Z,10.03
2018-04-08T10:35:27.685Z,9.93
2018-04-08T10:37:55.992Z,10.70
2018-04-08T10:40:24.080Z,9.90
2018-04-08T10:42:52.285Z,9.47
2018-04-08T10:45:20.581Z,9.70
2018-04-08T10:47:48.860Z,9.27
2018-04-08T10:50:17.155Z,10.60
2018-04-08T10:52:46.278Z,9.70
2018-04-08T10:55:14.478Z,9.23
2018-04-08T10:57:42.559Z,9.03
2018-04-08T11:00:10.755Z,9.80
2018-04-08T11:02:38.961Z,8.27
2018-04-08T11:05:07.242Z,9.30
2018-04-08T11:07:36.163Z,9.93
2018-04-08T11:10:04.356Z,8.47
2018-04-08T11:12:32.555Z,8.23
2018-04-08T11:15:00.743Z,7.70
2018-04-08T11:17:28.938Z,7.50
2018-04-08T11:19:57.084Z,7.50
2018-04-08T11:22:25.348Z,7.70
2018-04-08T11:24:53.717Z,8.67
2018-04-08T11:27:21.916Z,7.40
2018-04-08T11:29:50.717Z,8.27
2018-04-08T11:32:18.823Z,7.63
2018-04-08T11:34:47.024Z,8.27
2018-04-08T11:37:15.315Z,7.67
2018-04-08T11:39:43.495Z,6.10
2018-04-08T11:42:11.707Z,7.67
2018-04-08T11:44:40.088Z,8.73
2018-04-08T11:47:08.284Z,6.87
2018-04-08T11:49:36.476Z,7.70
2018-04-08T11:52:04.582Z,6.70
2018-04-08T11:54:32.983Z,6.90
2018-04-08T11:57:01.070Z,6.50
2018-04-08T11:59:29.320Z,6.87
2018-04-08T12:01:58.388Z,5.93
2018-04-08T12:04:26.570Z,6.40
2018-04-08T12:06:54.876Z,7.10
2018-04-08T12:09:23.056Z,6.70
2018-04-08T12:11:51.256Z,7.30
2018-04-08T12:14:19.461Z,5.50
2018-04-08T12:16:47.649Z,5.60
2018-04-08T12:19:15.843Z,6.63
2018-04-08T12:21:43.939Z,6.53
2018-04-08T12:24:12.049Z,5.40
2018-04-08T12:26:40.228Z,6.07
2018-04-08T12:29:08.404Z,5.70
2018-04-08T12:31:36.608Z,6.13
2018-04-08T12:34:04.792Z,5.83
2018-04-08T12:36:32.894Z,5.57
2018-04-08T12:39:01.090Z,6.00
2018-04-08T12:41:29.324Z,5.63
2018-04-08T12:43:57.448Z,6.53
2018-04-08T12:46:25.774Z,6.00
2018-04-08T12:48:54.063Z,5.80
2018-04-08T12:51:22.257Z,5.80
2018-04-08T12:53:50.569Z,6.00
2018-04-08T12:56:18.859Z,5.60
2018-04-08T12:58:46.954Z,5.70
2018-04-08T13:01:15.141Z,4.80
2018-04-08T13:03:43.451Z,5.33
2018-04-08T13:06:11.524Z,5.27
2018-04-08T13:08:39.724Z,5.37
2018-04-08T13:11:07.817Z,4.93
2018-04-08T13:13:36.008Z,5.30
2018-04-08T13:16:04.315Z,5.20
2018-04-08T13:18:32.412Z,4.43
2018-04-08T13:21:00.607Z,5.10
2018-04-08T13:23:28.883Z,4.30
2018-04-08T13:25:56.919Z,5.23
2018-04-08T13:28:25.294Z,5.07
2018-04-08T13:30:53.571Z,4.70
2018-04-08T13:33:21.679Z,5.40
2018-04-08T13:35:50.268Z,5.03
2018-04-08T13:38:18.479Z,3.97
2018-04-08T13:40:46.658Z,3.90
2018-04-08T13:43:14.847Z,4.13
2018-04-08T13:45:43.057Z,3.80
2018-04-08T13:48:11.242Z,4.00
2018-04-08T13:50:39.440Z,3.87
2018-04-08T13:53:07.742Z,3.70
2018-04-08T13:55:35.835Z,3.40
2018-04-08T13:58:04.019Z,3.90
2018-04-08T14:00:32.324Z,3.27
2018-04-08T14:03:00.716Z,3.00
2018-04-08T14:05:29.020Z,3.50
2018-04-08T14:07:57.036Z,3.90
2018-04-08T14:10:25.208Z,3.23
2018-04-08T14:12:53.499Z,3.17
2018-04-08T14:15:21.791Z,3.00
2018-04-08T14:17:50.000Z,3.40
2018-04-08T14:20:18.087Z,3.40
2018-04-08T14:22:46.379Z,3.30
2018-04-08T14:25:14.579Z,2.73
2018-04-08T14:27:42.661Z,3.27
2018-04-08T14:30:10.868Z,4.00
2018-04-08T14:32:39.048Z,3.20
2018-04-08T14:35:07.259Z,3.00
2018-04-08T14:37:35.329Z,3.50
2018-04-08T14:40:03.541Z,4.23
2018-04-08T14:42:31.729Z,3.17
2018-04-08T14:44:59.930Z,3.40
2018-04-08T14:47:27.918Z,3.60
2018-04-08T14:49:56.223Z,2.67
2018-04-08T14:52:24.400Z,2.90
2018-04-08T14:54:52.805Z,2.93
2018-04-08T14:57:20.945Z,3.17
2018-04-08T14:59:49.192Z,3.00
2018-04-08T15:02:17.325Z,3.00
2018-04-08T15:04:45.486Z,2.90
2018-04-08T15:07:13.676Z,2.70
2018-04-08T15:09:41.765Z,3.00
2018-04-08T15:12:09.955Z,2.50
2018-04-08T15:14:38.148Z,2.97
2018-04-08T15:17:07.195Z,1.90
2018-04-08T15:19:35.463Z,2.87
2018-04-08T15:22:03.558Z,2.60
2018-04-08T15:24:31.845Z,2.57
2018-04-08T15:27:00.044Z,2.40
2018-04-08T15:29:28.335Z,2.30
2018-04-08T15:31:56.436Z,2.10
2018-04-08T15:34:24.636Z,2.60
2018-04-08T15:36:53.223Z,3.07
2018-04-08T15:39:21.319Z,2.70
2018-04-08T15:41:49.524Z,2.30
2018-04-08T15:44:17.610Z,2.30
2018-04-08T15:46:45.813Z,2.10
2018-04-08T15:49:14.007Z,2.30
2018-04-08T15:51:42.293Z,2.60
2018-04-08T15:54:11.320Z,2.50
2018-04-08T15:56:39.596Z,2.50
2018-04-08T15:59:07.805Z,2.50
2018-04-08T16:01:36.003Z,2.20
2018-04-08T16:04:04.186Z,2.53
2018-04-08T16:06:32.476Z,2.13
2018-04-08T16:09:00.679Z,2.10
2018-04-08T16:11:28.777Z,2.50
2018-04-08T16:13:56.999Z,2.90
2018-04-08T16:16:25.155Z,2.07
2018-04-08T16:18:53.256Z,2.33
2018-04-08T16:21:21.444Z,1.90
2018-04-08T16:23:49.631Z,2.27
2018-04-08T16:26:17.727Z,2.37
2018-04-08T16:28:45.928Z,2.80
2018-04-08T16:31:14.120Z,2.30
2018-04-08T16:33:42.319Z,2.07
2018-04-08T16:36:10.503Z,2.00
2018-04-08T16:38:38.902Z,2.10
2018-04-08T16:41:07.209Z,2.10
2018-04-08T16:43:35.402Z,2.17
2018-04-08T16:46:03.592Z,1.90
2018-04-08T16:48:31.785Z,2.45
2018-04-08T16:51:00.204Z,2.00
2018-04-08T16:53:28.585Z,2.37
2018-04-08T16:55:56.791Z,1.98
2018-04-08T16:58:24.987Z,2.10
2018-04-08T17:00:53.179Z,2.00
2018-04-08T17:03:21.263Z,2.00
2018-04-08T17:05:49.447Z,2.08
2018-04-08T17:08:17.543Z,2.50
2018-04-08T17:10:45.735Z,2.62
2018-04-08T17:13:13.927Z,2.12
2018-04-08T17:15:42.224Z,2.20
2018-04-08T17:18:10.314Z,2.03
2018-04-08T17:20:38.521Z,2.25
2018-04-08T17:23:06.728Z,2.35
2018-04-08T17:25:35.014Z,2.28
2018-04-08T17:28:03.252Z,2.75
2018-04-08T17:30:31.412Z,2.35
2018-04-08T17:32:59.806Z,2.25
2018-04-08T17:35:27.986Z,2.22
2018-04-08T17:37:56.186Z,2.50
2018-04-08T17:40:24.174Z,2.55
2018-04-08T17:42:52.363Z,2.22
2018-04-08T17:45:20.579Z,2.70
2018-04-08T17:47:48.956Z,2.72
2018-04-08T17:50:17.249Z,2.42
2018-04-08T17:52:45.451Z,2.97
2018-04-08T17:55:13.759Z,2.55
2018-04-08T17:57:41.938Z,2.70
2018-04-08T18:00:10.960Z,2.58
2018-04-08T18:02:39.244Z,2.45
2018-04-08T18:05:07.461Z,3.33
2018-04-08T18:07:35.736Z,2.53
2018-04-08T18:10:03.936Z,2.45
2018-04-08T18:12:32.137Z,3.00
2018-04-08T18:15:00.342Z,2.85
2018-04-08T18:17:28.731Z,2.65
2018-04-08T18:19:57.850Z,3.08
2018-04-08T18:22:26.030Z,2.42
2018-04-08T18:24:54.137Z,2.45
2018-04-08T18:27:22.329Z,2.35
2018-04-08T18:29:50.409Z,2.35
2018-04-08T18:32:18.610Z,2.67
2018-04-08T18:34:46.903Z,3.28
2018-04-08T18:37:15.104Z,2.40
2018-04-08T18:39:43.304Z,2.55
2018-04-08T18:42:11.489Z,2.70
2018-04-08T18:44:39.796Z,2.62
2018-04-08T18:47:07.996Z,2.28
2018-04-08T18:49:36.183Z,2.65
2018-04-08T18:52:04.479Z,2.78
2018-04-08T18:54:32.659Z,2.92
2018-04-08T18:57:00.968Z,2.60
2018-04-08T18:59:29.060Z,3.12
2018-04-08T19:01:57.279Z,2.70
2018-04-08T19:04:25.468Z,2.62
2018-04-08T19:06:53.634Z,1.80
2018-04-08T19:09:21.735Z,1.90
2018-04-08T19:11:49.923Z,2.40
2018-04-08T19:14:18.123Z,2.42
2018-04-08T19:16:46.224Z,2.10
2018-04-08T19:19:14.325Z,2.55
2018-04-08T19:21:42.796Z,2.50
2018-04-08T19:24:10.897Z,2.30
2018-04-08T19:26:39.196Z,2.65
2018-04-08T19:29:07.411Z,2.53
2018-04-08T19:31:35.597Z,2.45
2018-04-08T19:34:03.776Z,2.85
2018-04-08T19:36:31.976Z,2.90
2018-04-08T19:39:00.056Z,2.45
2018-04-08T19:41:29.075Z,2.60
2018-04-08T19:43:57.099Z,3.35
2018-04-08T19:46:25.253Z,3.40
2018-04-08T19:48:53.456Z,3.20
2018-04-08T19:51:21.644Z,3.20
2018-04-08T19:53:49.844Z,3.45
2018-04-08T19:56:17.948Z,4.57
2018-04-08T19:58:46.124Z,3.62
2018-04-08T20:01:14.224Z,4.03
2018-04-08T20:03:42.403Z,4.05
2018-04-08T20:06:10.605Z,4.50
2018-04-08T20:08:38.804Z,4.85
2018-04-08T20:11:06.906Z,4.95
2018-04-08T20:13:35.193Z,4.70
2018-04-08T20:16:03.306Z,4.40
2018-04-08T20:18:31.583Z,4.57
2018-04-08T20:20:59.682Z,5.00
2018-04-08T20:23:27.864Z,4.60
2018-04-08T20:25:56.059Z,4.50
2018-04-08T20:28:24.222Z,3.80
2018-04-08T20:30:52.351Z,3.90
2018-04-08T20:33:20.657Z,3.50
2018-04-08T20:35:48.739Z,3.67
2018-04-08T20:38:16.937Z,4.20
2018-04-08T20:40:45.237Z,4.05
2018-04-08T20:43:13.436Z,4.82
2018-04-08T20:45:41.928Z,4.18
2018-04-08T20:48:10.151Z,4.15
2018-04-08T20:50:38.517Z,4.37
2018-04-08T20:53:06.808Z,3.70
2018-04-08T20:55:35.000Z,4.10
2018-04-08T20:58:03.216Z,4.05
2018-04-08T21:00:31.718Z,3.45
2018-04-08T21:03:00.008Z,3.78
2018-04-08T21:05:28.101Z,3.15
2018-04-08T21:07:56.248Z,3.28
2018-04-08T21:10:24.165Z,3.42
2018-04-08T21:12:52.378Z,3.85
2018-04-08T21:15:20.464Z,2.80
2018-04-08T21:17:48.657Z,4.18
2018-04-08T21:20:16.756Z,3.55
2018-04-08T21:22:44.951Z,3.67
2018-04-08T21:25:13.039Z,3.33
2018-04-08T21:27:41.221Z,3.42
2018-04-08T21:30:09.326Z,3.30
2018-04-08T21:32:37.519Z,3.65
2018-04-08T21:35:05.605Z,3.55
2018-04-08T21:37:34.046Z,3.45
2018-04-08T21:40:02.318Z,3.10
2018-04-08T21:42:30.502Z,2.90
2018-04-08T21:44:58.605Z,3.50
2018-04-08T21:47:26.782Z,3.60
2018-04-08T21:49:54.986Z,3.50
2018-04-08T21:52:23.123Z,3.35
2018-04-08T21:54:51.099Z,3.70
2018-04-08T21:57:19.481Z,3.55
2018-04-08T21:59:47.752Z,3.20
2018-04-08T22:02:16.051Z,3.50
2018-04-08T22:04:44.450Z,3.72
2018-04-08T22:07:12.761Z,3.85
2018-04-08T22:09:41.055Z,3.00
2018-04-08T22:12:09.143Z,3.58
2018-04-08T22:14:37.437Z,3.72
2018-04-08T22:17:05.520Z,3.03
2018-04-08T22:19:33.619Z,3.47
2018-04-08T22:22:01.718Z,3.87
2018-04-08T22:24:29.908Z,3.70
2018-04-08T22:26:58.000Z,3.42
2018-04-08T22:29:26.192Z,3.35
2018-04-08T22:31:54.477Z,3.72
2018-04-08T22:34:22.683Z,2.95
2018-04-08T22:36:50.672Z,3.10
2018-04-08T22:39:18.965Z,4.12
2018-04-08T22:41:47.161Z,3.70
2018-04-08T22:44:15.466Z,3.08
2018-04-08T22:46:43.748Z,3.30
2018-04-08T22:49:12.160Z,3.65
2018-04-08T22:51:40.458Z,3.90
2018-04-08T22:54:08.644Z,3.60
2018-04-08T22:56:36.835Z,3.87
2018-04-08T22:59:05.032Z,3.30
2018-04-08T23:01:33.124Z,3.80
2018-04-08T23:04:01.325Z,3.50
2018-04-08T23:06:29.416Z,3.50
2018-04-08T23:08:57.612Z,3.10
2018-04-08T23:11:25.704Z,2.87
2018-04-08T23:13:53.904Z,3.10
2018-04-08T23:16:22.101Z,4.10
2018-04-08T23:18:50.306Z,3.50
2018-04-08T23:21:18.477Z,3.08
2018-04-08T23:23:46.778Z,3.15
2018-04-08T23:26:14.965Z,3.05
2018-04-08T23:28:43.259Z,3.33
2018-04-08T23:31:11.571Z,4.18
2018-04-08T23:33:39.858Z,3.25
2018-04-08T23:36:08.107Z,3.42
2018-04-08T23:38:36.356Z,3.50
2018-04-08T23:41:04.541Z,2.92
2018-04-08T23:43:32.746Z,3.25
2018-04-08T23:46:01.033Z,3.20
2018-04-08T23:48:29.224Z,3.15
2018-04-08T23:50:57.329Z,3.45
2018-04-08T23:53:25.524Z,2.90
2018-04-08T23:55:53.599Z,3.33
2018-04-08T23:58:22.003Z,3.95
